sensor_id;sensor_type;location;lat;lon;timestamp;pressure;altitude;pressure_sealevel;temperature;humidity
5814;BME280;2933;52.302;8.134;2023-06-22T00:03:27;100923.09;;;20.01;100.00
5814;BME280;2933;52.302;8.134;2023-06-22T00:08:28;100916.44;;;19.88;100.00
5814;BME280;2933;52.302;8.134;2023-06-22T00:13:31;100901.03;;;19.53;100.00
5814;BME280;2933;52.302;8.134;2023-06-22T00:18:33;100908.25;;;19.71;100.00
5814;BME280;2933;52.302;8.134;2023-06-22T00:23:35;100910.75;;;19.73;100.00
5814;BME280;2933;52.302;8.134;2023-06-22T00:28:38;100903.09;;;19.69;100.00
5814;BME280;2933;52.302;8.134;2023-06-22T00:33:40;100879.66;;;19.65;100.00
5814;BME280;2933;52.302;8.134;2023-06-22T00:38:41;100873.47;;;19.74;100.00
5814;BME280;2933;52.302;8.134;2023-06-22T00:43:45;100871.47;;;19.48;100.00
5814;BME280;2933;52.302;8.134;2023-06-22T00:48:46;100867.72;;;19.31;100.00
5814;BME280;2933;52.302;8.134;2023-06-22T00:53:48;100864.66;;;19.46;100.00
5814;BME280;2933;52.302;8.134;2023-06-22T00:59:14;100858.78;;;19.42;100.00
5814;BME280;2933;52.302;8.134;2023-06-22T01:04:17;100858.50;;;19.26;100.00
5814;BME280;2933;52.302;8.134;2023-06-22T01:09:22;100856.00;;;19.34;100.00
5814;BME280;2933;52.302;8.134;2023-06-22T01:14:35;100861.88;;;19.37;100.00
5814;BME280;2933;52.302;8.134;2023-06-22T01:19:44;100867.31;;;19.36;100.00
5814;BME280;2933;52.302;8.134;2023-06-22T01:24:55;100856.72;;;19.26;100.00
5814;BME280;2933;52.302;8.134;2023-06-22T01:30:01;100853.38;;;19.24;100.00
5814;BME280;2933;52.302;8.134;2023-06-22T01:35:07;100853.66;;;19.21;100.00
5814;BME280;2933;52.302;8.134;2023-06-22T01:40:10;100856.59;;;18.98;100.00
5814;BME280;2933;52.302;8.134;2023-06-22T01:45:13;100843.50;;;18.97;100.00
5814;BME280;2933;52.302;8.134;2023-06-22T01:50:17;100862.72;;;18.99;100.00
5814;BME280;2933;52.302;8.134;2023-06-22T01:55:18;100856.69;;;18.77;100.00
5814;BME280;2933;52.302;8.134;2023-06-22T02:00:21;100869.66;;;18.90;100.00
5814;BME280;2933;52.302;8.134;2023-06-22T02:05:26;100855.00;;;18.86;100.00
5814;BME280;2933;52.302;8.134;2023-06-22T02:10:31;100858.13;;;19.01;100.00
5814;BME280;2933;52.302;8.134;2023-06-22T02:15:35;100870.53;;;18.91;100.00
5814;BME280;2933;52.302;8.134;2023-06-22T02:20:37;100866.16;;;18.80;100.00
5814;BME280;2933;52.302;8.134;2023-06-22T02:25:39;100857.94;;;18.73;100.00
5814;BME280;2933;52.302;8.134;2023-06-22T02:30:45;100860.19;;;18.78;100.00
5814;BME280;2933;52.302;8.134;2023-06-22T02:35:47;100855.94;;;18.46;100.00
5814;BME280;2933;52.302;8.134;2023-06-22T02:40:49;100859.44;;;18.56;100.00
5814;BME280;2933;52.302;8.134;2023-06-22T02:45:52;100854.16;;;18.46;100.00
5814;BME280;2933;52.302;8.134;2023-06-22T02:50:54;100857.66;;;18.66;100.00
5814;BME280;2933;52.302;8.134;2023-06-22T02:55:55;100855.56;;;18.60;100.00
5814;BME280;2933;52.302;8.134;2023-06-22T03:01:00;100856.47;;;18.30;100.00
5814;BME280;2933;52.302;8.134;2023-06-22T03:06:04;100857.06;;;18.43;100.00
5814;BME280;2933;52.302;8.134;2023-06-22T03:11:06;100854.16;;;18.56;100.00
5814;BME280;2933;52.302;8.134;2023-06-22T03:16:09;100857.25;;;18.81;100.00
5814;BME280;2933;52.302;8.134;2023-06-22T03:21:11;100864.34;;;18.70;100.00
5814;BME280;2933;52.302;8.134;2023-06-22T03:26:12;100854.59;;;18.61;100.00
5814;BME280;2933;52.302;8.134;2023-06-22T03:31:15;100857.91;;;18.63;100.00
5814;BME280;2933;52.302;8.134;2023-06-22T03:36:21;100861.00;;;18.68;100.00
5814;BME280;2933;52.302;8.134;2023-06-22T03:41:23;100857.53;;;18.68;100.00
5814;BME280;2933;52.302;8.134;2023-06-22T03:46:27;100859.44;;;18.46;100.00
5814;BME280;2933;52.302;8.134;2023-06-22T03:51:29;100857.66;;;18.16;100.00
5814;BME280;2933;52.302;8.134;2023-06-22T03:56:30;100845.84;;;18.20;100.00
5814;BME280;2933;52.302;8.134;2023-06-22T04:01:33;100853.13;;;18.28;100.00
5814;BME280;2933;52.302;8.134;2023-06-22T04:06:35;100850.16;;;18.21;100.00
5814;BME280;2933;52.302;8.134;2023-06-22T04:11:36;100859.84;;;18.01;100.00
5814;BME280;2933;52.302;8.134;2023-06-22T04:16:39;100863.00;;;18.25;100.00
5814;BME280;2933;52.302;8.134;2023-06-22T04:21:41;100860.72;;;18.11;100.00
5814;BME280;2933;52.302;8.134;2023-06-22T04:26:42;100858.16;;;18.40;100.00
5814;BME280;2933;52.302;8.134;2023-06-22T04:31:47;100856.81;;;18.46;100.00
5814;BME280;2933;52.302;8.134;2023-06-22T04:36:51;100850.28;;;18.60;100.00
5814;BME280;2933;52.302;8.134;2023-06-22T04:41:53;100855.81;;;18.57;100.00
5814;BME280;2933;52.302;8.134;2023-06-22T04:47:02;100847.34;;;18.73;100.00
5814;BME280;2933;52.302;8.134;2023-06-22T04:52:08;100852.88;;;18.40;100.00
5814;BME280;2933;52.302;8.134;2023-06-22T04:57:09;100843.75;;;18.84;100.00
5814;BME280;2933;52.302;8.134;2023-06-22T05:02:12;100833.31;;;18.92;100.00
5814;BME280;2933;52.302;8.134;2023-06-22T05:07:14;100843.19;;;18.80;100.00
5814;BME280;2933;52.302;8.134;2023-06-22T05:12:15;100834.69;;;18.86;100.00
5814;BME280;2933;52.302;8.134;2023-06-22T05:17:18;100831.03;;;18.58;100.00
5814;BME280;2933;52.302;8.134;2023-06-22T05:22:20;100845.44;;;18.85;100.00
5814;BME280;2933;52.302;8.134;2023-06-22T05:27:21;100837.63;;;19.13;100.00
5814;BME280;2933;52.302;8.134;2023-06-22T05:32:24;100843.47;;;19.26;100.00
5814;BME280;2933;52.302;8.134;2023-06-22T05:37:26;100846.84;;;19.76;100.00
5814;BME280;2933;52.302;8.134;2023-06-22T05:42:28;100839.47;;;19.69;100.00
5814;BME280;2933;52.302;8.134;2023-06-22T05:47:31;100836.50;;;19.82;100.00
5814;BME280;2933;52.302;8.134;2023-06-22T05:52:32;100838.31;;;19.92;100.00
5814;BME280;2933;52.302;8.134;2023-06-22T05:57:34;100837.47;;;19.91;100.00
5814;BME280;2933;52.302;8.134;2023-06-22T06:02:37;100842.44;;;20.04;100.00
5814;BME280;2933;52.302;8.134;2023-06-22T06:07:44;100833.75;;;20.12;100.00
5814;BME280;2933;52.302;8.134;2023-06-22T06:12:46;100825.41;;;20.07;100.00
5814;BME280;2933;52.302;8.134;2023-06-22T06:17:50;100840.22;;;20.27;100.00
5814;BME280;2933;52.302;8.134;2023-06-22T06:22:52;100816.44;;;20.36;100.00
5814;BME280;2933;52.302;8.134;2023-06-22T06:27:53;100833.03;;;20.38;100.00
5814;BME280;2933;52.302;8.134;2023-06-22T06:32:57;100845.13;;;20.68;100.00
5814;BME280;2933;52.302;8.134;2023-06-22T06:37:58;100841.06;;;21.10;100.00
5814;BME280;2933;52.302;8.134;2023-06-22T06:43:00;100832.47;;;21.16;100.00
5814;BME280;2933;52.302;8.134;2023-06-22T06:48:03;100835.97;;;21.43;99.11
5814;BME280;2933;52.302;8.134;2023-06-22T06:53:04;100831.25;;;21.10;100.00
5814;BME280;2933;52.302;8.134;2023-06-22T06:58:06;100841.59;;;20.95;100.00
5814;BME280;2933;52.302;8.134;2023-06-22T07:03:11;100840.00;;;21.03;100.00
5814;BME280;2933;52.302;8.134;2023-06-22T07:08:12;100841.78;;;21.20;100.00
5814;BME280;2933;52.302;8.134;2023-06-22T07:13:14;100836.03;;;21.51;100.00
5814;BME280;2933;52.302;8.134;2023-06-22T07:18:17;100835.34;;;21.49;99.64
5814;BME280;2933;52.302;8.134;2023-06-22T07:23:18;100830.88;;;21.76;98.58
5814;BME280;2933;52.302;8.134;2023-06-22T07:28:20;100817.38;;;21.69;97.65
5814;BME280;2933;52.302;8.134;2023-06-22T07:33:23;100824.81;;;22.00;99.34
5814;BME280;2933;52.302;8.134;2023-06-22T07:38:24;100806.91;;;21.68;97.23
5814;BME280;2933;52.302;8.134;2023-06-22T07:43:26;100821.81;;;21.95;97.05
5814;BME280;2933;52.302;8.134;2023-06-22T07:48:29;100824.31;;;21.97;94.58
5814;BME280;2933;52.302;8.134;2023-06-22T07:53:30;100820.53;;;21.73;96.76
5814;BME280;2933;52.302;8.134;2023-06-22T07:58:32;100803.94;;;22.14;96.38
5814;BME280;2933;52.302;8.134;2023-06-22T08:03:35;100817.41;;;22.12;96.90
5814;BME280;2933;52.302;8.134;2023-06-22T08:08:36;100800.56;;;22.03;96.67
5814;BME280;2933;52.302;8.134;2023-06-22T08:13:38;100806.75;;;22.20;96.41
5814;BME280;2933;52.302;8.134;2023-06-22T08:18:41;100798.03;;;21.93;98.80
5814;BME280;2933;52.302;8.134;2023-06-22T08:23:42;100796.56;;;21.99;97.56
5814;BME280;2933;52.302;8.134;2023-06-22T08:28:44;100794.91;;;22.06;98.09
5814;BME280;2933;52.302;8.134;2023-06-22T08:33:47;100788.34;;;22.27;97.29
5814;BME280;2933;52.302;8.134;2023-06-22T08:38:48;100799.41;;;22.14;94.70
5814;BME280;2933;52.302;8.134;2023-06-22T08:43:51;100803.59;;;22.08;96.31
5814;BME280;2933;52.302;8.134;2023-06-22T08:48:54;100806.69;;;22.38;96.91
5814;BME280;2933;52.302;8.134;2023-06-22T08:53:55;100800.97;;;22.25;98.81
5814;BME280;2933;52.302;8.134;2023-06-22T08:58:57;100802.53;;;22.44;97.30
5814;BME280;2933;52.302;8.134;2023-06-22T09:04:00;100793.53;;;22.45;96.88
5814;BME280;2933;52.302;8.134;2023-06-22T09:09:01;100780.00;;;22.30;96.50
5814;BME280;2933;52.302;8.134;2023-06-22T09:14:03;100765.63;;;22.66;94.76
5814;BME280;2933;52.302;8.134;2023-06-22T09:19:07;100769.63;;;22.78;94.67
5814;BME280;2933;52.302;8.134;2023-06-22T09:24:08;100756.09;;;23.29;94.09
5814;BME280;2933;52.302;8.134;2023-06-22T09:29:10;100746.34;;;23.53;89.64
5814;BME280;2933;52.302;8.134;2023-06-22T09:34:13;100740.00;;;23.54;88.90
5814;BME280;2933;52.302;8.134;2023-06-22T09:39:14;100742.69;;;23.85;90.64
5814;BME280;2933;52.302;8.134;2023-06-22T09:44:16;100751.88;;;24.14;87.20
5814;BME280;2933;52.302;8.134;2023-06-22T09:49:19;100756.28;;;24.07;87.35
5814;BME280;2933;52.302;8.134;2023-06-22T09:54:20;100757.38;;;24.21;86.67
5814;BME280;2933;52.302;8.134;2023-06-22T09:59:22;100744.25;;;24.11;86.32
5814;BME280;2933;52.302;8.134;2023-06-22T10:04:24;100741.03;;;24.62;84.90
5814;BME280;2933;52.302;8.134;2023-06-22T10:09:26;100737.19;;;24.42;86.84
5814;BME280;2933;52.302;8.134;2023-06-22T10:14:28;100727.84;;;24.46;84.19
5814;BME280;2933;52.302;8.134;2023-06-22T10:19:31;100713.28;;;24.72;84.76
5814;BME280;2933;52.302;8.134;2023-06-22T10:24:33;100704.72;;;24.76;84.24
5814;BME280;2933;52.302;8.134;2023-06-22T10:29:34;100703.44;;;24.87;84.43
5814;BME280;2933;52.302;8.134;2023-06-22T10:34:37;100700.97;;;24.86;83.30
5814;BME280;2933;52.302;8.134;2023-06-22T10:39:39;100703.66;;;25.15;81.72
5814;BME280;2933;52.302;8.134;2023-06-22T10:44:40;100703.47;;;25.17;83.73
5814;BME280;2933;52.302;8.134;2023-06-22T10:49:45;100710.00;;;24.99;82.89
5814;BME280;2933;52.302;8.134;2023-06-22T10:54:47;100716.63;;;25.04;82.21
5814;BME280;2933;52.302;8.134;2023-06-22T10:59:48;100708.88;;;25.24;80.42
5814;BME280;2933;52.302;8.134;2023-06-22T11:04:51;100693.69;;;25.09;81.96
5814;BME280;2933;52.302;8.134;2023-06-22T11:09:53;100704.22;;;25.92;81.22
5814;BME280;2933;52.302;8.134;2023-06-22T11:14:54;100700.13;;;25.96;77.86
5814;BME280;2933;52.302;8.134;2023-06-22T11:19:58;100694.84;;;26.03;76.34
5814;BME280;2933;52.302;8.134;2023-06-22T11:25:00;100692.28;;;25.58;79.65
5814;BME280;2933;52.302;8.134;2023-06-22T11:30:02;100681.06;;;25.85;77.34
5814;BME280;2933;52.302;8.134;2023-06-22T11:35:06;100675.59;;;25.93;76.77
5814;BME280;2933;52.302;8.134;2023-06-22T11:45:17;100645.31;;;26.07;75.48
5814;BME280;2933;52.302;8.134;2023-06-22T11:50:22;100624.03;;;26.27;74.87
5814;BME280;2933;52.302;8.134;2023-06-22T11:55:23;100624.78;;;26.15;77.13
5814;BME280;2933;52.302;8.134;2023-06-22T12:00:25;100610.59;;;25.99;77.47
5814;BME280;2933;52.302;8.134;2023-06-22T12:05:28;100613.34;;;26.27;74.25
5814;BME280;2933;52.302;8.134;2023-06-22T12:10:29;100608.72;;;26.00;74.10
5814;BME280;2933;52.302;8.134;2023-06-22T12:15:31;100593.13;;;26.03;76.19
5814;BME280;2933;52.302;8.134;2023-06-22T12:20:34;100602.88;;;26.33;74.82
5814;BME280;2933;52.302;8.134;2023-06-22T12:25:36;100607.69;;;26.44;73.00
5814;BME280;2933;52.302;8.134;2023-06-22T12:30:37;100617.69;;;26.57;72.39
5814;BME280;2933;52.302;8.134;2023-06-22T12:35:40;100615.13;;;26.49;72.98
5814;BME280;2933;52.302;8.134;2023-06-22T12:40:41;100619.50;;;26.56;73.15
5814;BME280;2933;52.302;8.134;2023-06-22T12:45:43;100620.44;;;26.13;72.35
5814;BME280;2933;52.302;8.134;2023-06-22T12:50:46;100604.84;;;26.24;72.46
5814;BME280;2933;52.302;8.134;2023-06-22T12:55:48;100605.38;;;26.12;73.51
5814;BME280;2933;52.302;8.134;2023-06-22T13:00:49;100609.19;;;25.81;75.48
5814;BME280;2933;52.302;8.134;2023-06-22T13:05:52;100603.84;;;25.81;75.48
5814;BME280;2933;52.302;8.134;2023-06-22T13:10:54;100590.13;;;25.48;76.38
5814;BME280;2933;52.302;8.134;2023-06-22T13:15:57;100590.81;;;25.35;76.03
5814;BME280;2933;52.302;8.134;2023-06-22T13:20:59;100583.06;;;25.40;77.27
5814;BME280;2933;52.302;8.134;2023-06-22T13:26:01;100578.09;;;25.37;77.27
5814;BME280;2933;52.302;8.134;2023-06-22T13:31:03;100572.00;;;25.28;79.11
5814;BME280;2933;52.302;8.134;2023-06-22T13:36:06;100572.94;;;25.21;83.38
5814;BME280;2933;52.302;8.134;2023-06-22T13:41:07;100567.44;;;24.92;89.20
5814;BME280;2933;52.302;8.134;2023-06-22T13:46:09;100569.91;;;24.49;97.34
5814;BME280;2933;52.302;8.134;2023-06-22T13:51:12;100582.38;;;24.57;100.00
5814;BME280;2933;52.302;8.134;2023-06-22T13:56:13;100579.78;;;24.48;100.00
5814;BME280;2933;52.302;8.134;2023-06-22T14:01:15;100555.63;;;24.27;100.00
5814;BME280;2933;52.302;8.134;2023-06-22T14:06:18;100544.63;;;24.07;100.00
5814;BME280;2933;52.302;8.134;2023-06-22T14:11:19;100527.09;;;23.66;100.00
5814;BME280;2933;52.302;8.134;2023-06-22T14:16:21;100485.97;;;23.14;100.00
5814;BME280;2933;52.302;8.134;2023-06-22T14:21:24;100409.53;;;23.14;100.00
5814;BME280;2933;52.302;8.134;2023-06-22T14:26:25;100400.09;;;22.80;100.00
5814;BME280;2933;52.302;8.134;2023-06-22T14:31:27;100424.06;;;22.80;100.00
5814;BME280;2933;52.302;8.134;2023-06-22T14:36:30;100406.66;;;22.69;100.00
5814;BME280;2933;52.302;8.134;2023-06-22T14:41:31;100397.41;;;22.57;100.00
5814;BME280;2933;52.302;8.134;2023-06-22T14:46:33;100390.06;;;22.59;100.00
5814;BME280;2933;52.302;8.134;2023-06-22T14:51:35;100390.94;;;22.51;100.00
5814;BME280;2933;52.302;8.134;2023-06-22T14:56:37;100377.91;;;22.56;100.00
5814;BME280;2933;52.302;8.134;2023-06-22T15:01:39;100352.09;;;22.65;100.00
5814;BME280;2933;52.302;8.134;2023-06-22T15:06:41;100357.50;;;22.80;100.00
5814;BME280;2933;52.302;8.134;2023-06-22T15:11:44;100404.50;;;22.65;100.00
5814;BME280;2933;52.302;8.134;2023-06-22T15:16:46;100430.47;;;22.63;100.00
5814;BME280;2933;52.302;8.134;2023-06-22T15:21:48;100443.91;;;22.30;100.00
5814;BME280;2933;52.302;8.134;2023-06-22T15:26:50;100393.66;;;22.43;100.00
5814;BME280;2933;52.302;8.134;2023-06-22T15:31:52;100388.53;;;22.65;100.00
5814;BME280;2933;52.302;8.134;2023-06-22T15:36:55;100375.03;;;22.35;100.00
5814;BME280;2933;52.302;8.134;2023-06-22T15:41:56;100369.47;;;22.53;100.00
5814;BME280;2933;52.302;8.134;2023-06-22T15:46:58;100377.75;;;22.58;100.00
5814;BME280;2933;52.302;8.134;2023-06-22T15:52:01;100384.09;;;22.57;100.00
5814;BME280;2933;52.302;8.134;2023-06-22T15:57:02;100369.22;;;22.31;100.00
5814;BME280;2933;52.302;8.134;2023-06-22T16:02:05;100342.81;;;22.21;100.00
5814;BME280;2933;52.302;8.134;2023-06-22T16:07:08;100354.41;;;22.28;100.00
5814;BME280;2933;52.302;8.134;2023-06-22T16:12:11;100337.63;;;22.28;100.00
5814;BME280;2933;52.302;8.134;2023-06-22T16:17:12;100270.84;;;21.83;100.00
5814;BME280;2933;52.302;8.134;2023-06-22T16:22:15;100245.69;;;21.94;100.00
5814;BME280;2933;52.302;8.134;2023-06-22T16:27:17;100259.84;;;21.86;100.00
5814;BME280;2933;52.302;8.134;2023-06-22T16:32:19;100217.81;;;21.82;100.00
5814;BME280;2933;52.302;8.134;2023-06-22T16:37:22;100233.03;;;22.04;100.00
5814;BME280;2933;52.302;8.134;2023-06-22T16:42:24;100268.41;;;22.05;100.00
5814;BME280;2933;52.302;8.134;2023-06-22T16:47:26;100267.06;;;21.69;100.00
5814;BME280;2933;52.302;8.134;2023-06-22T16:52:29;100267.66;;;21.88;100.00
5814;BME280;2933;52.302;8.134;2023-06-22T16:57:31;100266.38;;;21.75;100.00
5814;BME280;2933;52.302;8.134;2023-06-22T17:02:33;100263.94;;;21.49;100.00
5814;BME280;2933;52.302;8.134;2023-06-22T17:07:39;100255.81;;;21.59;100.00
5814;BME280;2933;52.302;8.134;2023-06-22T17:12:47;100281.38;;;21.52;100.00
5814;BME280;2933;52.302;8.134;2023-06-22T17:17:50;100302.66;;;21.43;100.00
5814;BME280;2933;52.302;8.134;2023-06-22T17:22:54;100347.19;;;21.17;100.00
5814;BME280;2933;52.302;8.134;2023-06-22T17:27:58;100373.72;;;21.08;100.00
5814;BME280;2933;52.302;8.134;2023-06-22T17:33:00;100378.06;;;21.26;100.00
5814;BME280;2933;52.302;8.134;2023-06-22T17:38:03;100349.50;;;21.03;100.00
5814;BME280;2933;52.302;8.134;2023-06-22T17:43:05;100367.91;;;20.88;100.00
5814;BME280;2933;52.302;8.134;2023-06-22T17:48:07;100370.09;;;20.93;100.00
5814;BME280;2933;52.302;8.134;2023-06-22T17:53:12;100347.63;;;20.71;100.00
5814;BME280;2933;52.302;8.134;2023-06-22T17:58:13;100298.47;;;20.42;100.00
5814;BME280;2933;52.302;8.134;2023-06-22T18:03:23;100282.88;;;20.47;100.00
5814;BME280;2933;52.302;8.134;2023-06-22T18:08:27;100212.56;;;20.51;100.00
5814;BME280;2933;52.302;8.134;2023-06-22T18:13:29;100148.25;;;20.41;100.00
5814;BME280;2933;52.302;8.134;2023-06-22T18:18:31;100160.50;;;20.17;100.00
5814;BME280;2933;52.302;8.134;2023-06-22T18:23:36;100181.03;;;20.15;100.00
5814;BME280;2933;52.302;8.134;2023-06-22T18:28:38;100190.84;;;20.14;100.00
5814;BME280;2933;52.302;8.134;2023-06-22T18:33:40;100197.09;;;20.05;100.00
5814;BME280;2933;52.302;8.134;2023-06-22T18:38:44;100188.16;;;20.06;100.00
5814;BME280;2933;52.302;8.134;2023-06-22T18:43:51;100182.69;;;19.99;100.00
5814;BME280;2933;52.302;8.134;2023-06-22T18:48:59;100168.25;;;19.94;100.00
5814;BME280;2933;52.302;8.134;2023-06-22T18:54:05;100165.94;;;20.07;100.00
5814;BME280;2933;52.302;8.134;2023-06-22T18:59:11;100193.09;;;19.93;100.00
5814;BME280;2933;52.302;8.134;2023-06-22T19:04:15;100194.59;;;19.87;100.00
5814;BME280;2933;52.302;8.134;2023-06-22T19:09:18;100198.09;;;19.96;100.00
5814;BME280;2933;52.302;8.134;2023-06-22T19:14:20;100212.50;;;20.01;100.00
5814;BME280;2933;52.302;8.134;2023-06-22T19:19:23;100210.38;;;20.13;100.00
5814;BME280;2933;52.302;8.134;2023-06-22T19:24:30;100206.22;;;19.94;100.00
5814;BME280;2933;52.302;8.134;2023-06-22T19:29:32;100215.38;;;19.74;100.00
5814;BME280;2933;52.302;8.134;2023-06-22T19:34:35;100217.84;;;19.75;100.00
5814;BME280;2933;52.302;8.134;2023-06-22T19:39:38;100225.16;;;19.73;100.00
5814;BME280;2933;52.302;8.134;2023-06-22T19:44:39;100234.09;;;19.80;100.00
5814;BME280;2933;52.302;8.134;2023-06-22T19:49:41;100217.34;;;19.72;100.00
5814;BME280;2933;52.302;8.134;2023-06-22T19:54:44;100196.09;;;19.55;100.00
5814;BME280;2933;52.302;8.134;2023-06-22T19:59:45;100192.53;;;19.38;100.00
5814;BME280;2933;52.302;8.134;2023-06-22T20:04:49;100192.00;;;19.34;100.00
5814;BME280;2933;52.302;8.134;2023-06-22T20:10:19;100199.72;;;19.46;100.00
5814;BME280;2933;52.302;8.134;2023-06-22T20:15:22;100194.66;;;19.34;100.00
5814;BME280;2933;52.302;8.134;2023-06-22T20:20:27;100177.66;;;19.11;100.00
5814;BME280;2933;52.302;8.134;2023-06-22T20:25:31;100184.41;;;19.31;100.00
5814;BME280;2933;52.302;8.134;2023-06-22T20:30:33;100188.38;;;19.35;100.00
5814;BME280;2933;52.302;8.134;2023-06-22T20:35:35;100167.28;;;19.17;100.00
5814;BME280;2933;52.302;8.134;2023-06-22T20:40:38;100165.16;;;19.21;100.00
5814;BME280;2933;52.302;8.134;2023-06-22T20:45:39;100146.56;;;19.13;100.00
5814;BME280;2933;52.302;8.134;2023-06-22T20:50:41;100150.19;;;19.12;100.00
5814;BME280;2933;52.302;8.134;2023-06-22T20:55:44;100136.97;;;19.12;100.00
5814;BME280;2933;52.302;8.134;2023-06-22T21:00:45;100123.72;;;19.12;100.00
5814;BME280;2933;52.302;8.134;2023-06-22T21:05:47;100136.56;;;18.98;100.00
5814;BME280;2933;52.302;8.134;2023-06-22T21:10:50;100145.88;;;18.84;100.00
5814;BME280;2933;52.302;8.134;2023-06-22T21:15:53;100149.72;;;18.90;100.00
5814;BME280;2933;52.302;8.134;2023-06-22T21:20:55;100165.91;;;18.87;100.00
5814;BME280;2933;52.302;8.134;2023-06-22T21:25:58;100168.53;;;18.87;100.00
5814;BME280;2933;52.302;8.134;2023-06-22T21:30:59;100174.31;;;18.82;100.00
5814;BME280;2933;52.302;8.134;2023-06-22T21:36:01;100172.34;;;18.84;100.00
5814;BME280;2933;52.302;8.134;2023-06-22T21:41:04;100153.91;;;18.74;100.00
5814;BME280;2933;52.302;8.134;2023-06-22T21:46:05;100164.22;;;18.86;100.00
5814;BME280;2933;52.302;8.134;2023-06-22T21:51:07;100158.88;;;18.96;100.00
5814;BME280;2933;52.302;8.134;2023-06-22T21:56:09;100151.09;;;18.94;100.00
5814;BME280;2933;52.302;8.134;2023-06-22T22:01:11;100157.97;;;19.13;100.00
5814;BME280;2933;52.302;8.134;2023-06-22T22:06:13;100159.63;;;19.06;100.00
5814;BME280;2933;52.302;8.134;2023-06-22T22:11:16;100166.38;;;18.82;100.00
5814;BME280;2933;52.302;8.134;2023-06-22T22:16:18;100168.28;;;18.72;100.00
5814;BME280;2933;52.302;8.134;2023-06-22T22:21:19;100158.94;;;18.60;100.00
5814;BME280;2933;52.302;8.134;2023-06-22T22:26:22;100161.16;;;18.46;100.00
5814;BME280;2933;52.302;8.134;2023-06-22T22:31:25;100157.47;;;18.39;100.00
5814;BME280;2933;52.302;8.134;2023-06-22T22:36:26;100171.66;;;18.38;100.00
5814;BME280;2933;52.302;8.134;2023-06-22T22:41:29;100177.78;;;18.38;100.00
5814;BME280;2933;52.302;8.134;2023-06-22T22:46:30;100178.25;;;18.34;100.00
5814;BME280;2933;52.302;8.134;2023-06-22T22:51:32;100183.66;;;18.32;100.00
5814;BME280;2933;52.302;8.134;2023-06-22T22:56:36;100195.22;;;18.31;100.00
5814;BME280;2933;52.302;8.134;2023-06-22T23:01:37;100195.50;;;18.10;100.00
5814;BME280;2933;52.302;8.134;2023-06-22T23:06:39;100193.41;;;17.96;100.00
5814;BME280;2933;52.302;8.134;2023-06-22T23:11:42;100211.91;;;17.96;100.00
5814;BME280;2933;52.302;8.134;2023-06-22T23:16:43;100217.63;;;17.81;100.00
5814;BME280;2933;52.302;8.134;2023-06-22T23:21:45;100229.91;;;17.72;100.00
5814;BME280;2933;52.302;8.134;2023-06-22T23:26:50;100241.38;;;17.63;100.00
5814;BME280;2933;52.302;8.134;2023-06-22T23:31:52;100256.25;;;17.64;100.00
5814;BME280;2933;52.302;8.134;2023-06-22T23:36:54;100248.38;;;17.54;100.00
5814;BME280;2933;52.302;8.134;2023-06-22T23:41:57;100265.34;;;17.42;100.00
5814;BME280;2933;52.302;8.134;2023-06-22T23:46:58;100256.38;;;17.15;100.00
5814;BME280;2933;52.302;8.134;2023-06-22T23:52:01;100251.81;;;17.07;100.00
5814;BME280;2933;52.302;8.134;2023-06-22T23:57:06;100257.94;;;16.69;100.00
